Time;durP1;ratioP1;P1;durP2;ratioP2;P2;SDS_P1;SDS_P2;PMS_P1;PMS_P2;Temp;Humidity;BMP_temperature;BMP_pressure;BME280_temperature;BME280_humidity;BME280_pressure;Samples;Min_cycle;Max_cycle;Signal;HPM_P1;HPM_P2
2024/04/13 00:00:44;;;;;;;34.25;23.45;;;;;;;;;;5302539;26;20001;-51
2024/04/13 00:03:10;;;;;;;29.10;23.57;;;;;;;;;;5345596;26;20016;-50
2024/04/13 00:05:36;;;;;;;29.83;24.00;;;;;;;;;;5345403;26;20012;-50
2024/04/13 00:08:02;;;;;;;26.67;23.00;;;;;;;;;;5280426;27;20016;-50
2024/04/13 00:10:30;;;;;;;29.27;25.23;;;;;;;;;;5334125;26;20015;-50
2024/04/13 00:12:56;;;;;;;28.10;24.52;;;;;;;;;;5317491;26;20012;-51
2024/04/13 00:15:22;;;;;;;31.23;26.20;;;;;;;;;;5345283;26;20012;-50
2024/04/13 00:17:49;;;;;;;29.70;25.83;;;;;;;;;;5344898;26;20477;-50
2024/04/13 00:20:15;;;;;;;34.57;27.70;;;;;;;;;;5344458;26;20001;-50
2024/04/13 00:22:41;;;;;;;36.85;29.85;;;;;;;;;;5345050;26;20008;-52
2024/04/13 00:25:09;;;;;;;33.40;29.33;;;;;;;;;;5314752;26;20474;-49
2024/04/13 00:27:36;;;;;;;35.72;27.90;;;;;;;;;;5344652;26;20001;-49
2024/04/13 00:30:04;;;;;;;36.10;26.55;;;;;;;;;;5342912;26;20005;-49
2024/04/13 00:32:30;;;;;;;34.20;27.25;;;;;;;;;;5338273;26;20007;-50
2024/04/13 00:34:57;;;;;;;28.38;25.08;;;;;;;;;;5315023;26;20070;-49
2024/04/13 00:37:23;;;;;;;33.70;25.15;;;;;;;;;;5344784;26;20001;-50
2024/04/13 00:39:49;;;;;;;28.50;25.47;;;;;;;;;;5344731;26;20020;-49
2024/04/13 00:42:16;;;;;;;27.23;24.37;;;;;;;;;;5344411;26;20259;-49
2024/04/13 00:44:42;;;;;;;39.10;27.75;;;;;;;;;;5314072;26;20013;-50
2024/04/13 00:47:12;;;;;;;43.77;31.03;;;;;;;;;;5344914;26;20005;-49
2024/04/13 00:49:38;;;;;;;34.20;27.25;;;;;;;;;;5344365;26;20008;-48
2024/04/13 00:52:07;;;;;;;31.85;26.10;;;;;;;;;;5344652;26;20001;-50
2024/04/13 00:54:34;;;;;;;33.33;24.27;;;;;;;;;;5314191;26;20003;-50
2024/04/13 00:57:02;;;;;;;32.63;23.55;;;;;;;;;;5344348;26;20073;-51
2024/04/13 00:59:29;;;;;;;29.10;24.83;;;;;;;;;;5344439;26;20001;-49
2024/04/13 01:01:58;;;;;;;31.00;26.15;;;;;;;;;;5313765;26;20050;-49
2024/04/13 01:04:24;;;;;;;36.40;28.98;;;;;;;;;;5344063;26;20001;-49
2024/04/13 01:06:51;;;;;;;35.40;29.27;;;;;;;;;;5344788;26;20350;-50
2024/04/13 01:09:17;;;;;;;34.72;28.05;;;;;;;;;;5313687;26;20001;-50
2024/04/13 01:11:43;;;;;;;37.97;26.57;;;;;;;;;;5342969;26;20044;-50
2024/04/13 01:14:11;;;;;;;36.05;25.15;;;;;;;;;;5344132;26;20012;-51
2024/04/13 01:16:38;;;;;;;30.88;24.70;;;;;;;;;;5344142;26;20005;-51
2024/04/13 01:19:04;;;;;;;33.15;23.48;;;;;;;;;;5313507;26;20001;-50
2024/04/13 01:21:34;;;;;;;28.27;24.03;;;;;;;;;;5343898;26;20444;-50
2024/04/13 01:24:07;;;;;;;28.80;24.90;;;;;;;;;;5344353;26;20013;-50
2024/04/13 01:26:37;;;;;;;37.67;26.58;;;;;;;;;;5314033;26;20012;-49
2024/04/13 01:29:07;;;;;;;29.55;22.10;;;;;;;;;;5343869;26;20033;-50
2024/04/13 01:31:34;;;;;;;24.60;19.70;;;;;;;;;;5343604;26;20073;-49
2024/04/13 01:34:02;;;;;;;29.02;21.27;;;;;;;;;;5343610;26;20670;-49
2024/04/13 01:36:35;;;;;;;30.42;23.73;;;;;;;;;;5343662;26;20001;-50
2024/04/13 01:39:02;;;;;;;32.97;24.73;;;;;;;;;;5343935;26;20032;-49
2024/04/13 01:41:28;;;;;;;31.13;27.20;;;;;;;;;;5344225;26;20016;-51
2024/04/13 01:43:54;;;;;;;36.03;28.97;;;;;;;;;;5347388;26;20005;-51
2024/04/13 01:46:20;;;;;;;41.37;32.43;;;;;;;;;;5316241;26;20415;-50
2024/04/13 01:48:47;;;;;;;43.73;31.30;;;;;;;;;;5316191;26;20071;-50
2024/04/13 01:51:13;;;;;;;41.03;32.60;;;;;;;;;;5316204;26;20005;-50
2024/04/13 01:53:40;;;;;;;41.40;31.45;;;;;;;;;;5317065;26;19993;-51
2024/04/13 01:56:07;;;;;;;36.53;28.95;;;;;;;;;;5346459;26;20008;-50
2024/04/13 01:58:33;;;;;;;36.80;29.65;;;;;;;;;;5346956;26;20037;-51
2024/04/13 02:01:03;;;;;;;34.50;26.08;;;;;;;;;;5346314;26;20012;-50
2024/04/13 02:03:29;;;;;;;33.35;26.25;;;;;;;;;;5317026;26;19997;-50
2024/04/13 02:06:00;;;;;;;29.58;23.38;;;;;;;;;;5317035;26;20001;-50
2024/04/13 02:08:27;;;;;;;29.45;26.10;;;;;;;;;;5316742;26;20360;-50
2024/04/13 02:10:57;;;;;;;36.88;28.15;;;;;;;;;;5316163;26;20466;-50
2024/04/13 02:13:23;;;;;;;42.35;29.70;;;;;;;;;;5346897;26;20082;-49
2024/04/13 02:15:50;;;;;;;36.95;28.50;;;;;;;;;;5346885;26;20036;-51
2024/04/13 02:18:17;;;;;;;32.73;28.97;;;;;;;;;;5346245;26;20520;-50
2024/04/13 02:20:44;;;;;;;42.70;32.20;;;;;;;;;;5346434;26;20699;-49
2024/04/13 02:23:11;;;;;;;40.05;31.38;;;;;;;;;;5343235;26;20370;-50
2024/04/13 02:25:37;;;;;;;42.53;31.00;;;;;;;;;;5316689;26;19993;-51
2024/04/13 02:28:06;;;;;;;39.85;31.60;;;;;;;;;;5346620;26;20342;-53
2024/04/13 02:30:32;;;;;;;41.80;32.97;;;;;;;;;;5309674;26;20005;-49
2024/04/13 02:32:59;;;;;;;45.92;31.77;;;;;;;;;;5346234;26;20334;-49
2024/04/13 02:35:25;;;;;;;42.30;33.77;;;;;;;;;;5346516;26;20001;-50
2024/04/13 02:37:52;;;;;;;39.03;31.67;;;;;;;;;;5346822;26;20001;-53
2024/04/13 02:40:23;;;;;;;39.25;31.20;;;;;;;;;;5346705;26;19993;-49
2024/04/13 02:42:53;;;;;;;41.80;32.30;;;;;;;;;;5346303;26;20005;-49
2024/04/13 02:45:19;;;;;;;41.58;33.65;;;;;;;;;;5346210;26;20041;-49
2024/04/13 02:47:48;;;;;;;39.40;31.37;;;;;;;;;;5346658;26;20382;-51
2024/04/13 02:50:16;;;;;;;40.17;32.22;;;;;;;;;;5345350;26;20231;-49
2024/04/13 02:52:42;;;;;;;41.95;31.70;;;;;;;;;;5314735;26;20001;-49
2024/04/13 02:55:09;;;;;;;35.47;29.93;;;;;;;;;;5346008;26;20515;-52
2024/04/13 02:57:35;;;;;;;;;;;;;;;;;;5346846;26;20070;-50
2024/04/13 03:00:01;;;;;;;42.35;32.13;;;;;;;;;;5345329;26;19926;-49
2024/04/13 03:02:28;;;;;;;41.28;31.92;;;;;;;;;;5343952;26;20016;-49
2024/04/13 03:04:54;;;;;;;35.50;25.47;;;;;;;;;;5314903;26;20037;-50
2024/04/13 03:07:20;;;;;;;26.47;22.97;;;;;;;;;;5287397;26;19997;-50
2024/04/13 03:09:48;;;;;;;27.00;21.47;;;;;;;;;;5287148;26;20007;-51
2024/04/13 03:12:15;;;;;;;25.58;21.73;;;;;;;;;;5345609;26;20012;-50
2024/04/13 03:14:43;;;;;;;37.85;25.58;;;;;;;;;;5346408;26;20385;-50
2024/04/13 03:17:09;;;;;;;28.95;24.75;;;;;;;;;;5346377;26;20016;-50
2024/04/13 03:19:36;;;;;;;29.85;24.80;;;;;;;;;;5315575;26;20405;-50
2024/04/13 03:22:02;;;;;;;32.08;25.58;;;;;;;;;;5315790;26;20069;-51
2024/04/13 03:24:29;;;;;;;35.28;27.15;;;;;;;;;;5346261;26;19996;-50
2024/04/13 03:26:55;;;;;;;;;;;;;;;;;;5316466;26;19996;-52
2024/04/13 03:29:21;;;;;;;32.05;27.08;;;;;;;;;;5345414;26;20362;-50
2024/04/13 03:31:47;;;;;;;32.33;27.42;;;;;;;;;;5345290;26;20051;-50
2024/04/13 03:34:14;;;;;;;35.83;27.92;;;;;;;;;;5315070;26;19997;-50
2024/04/13 03:36:40;;;;;;;39.53;30.25;;;;;;;;;;5345905;26;20008;-50
2024/04/13 03:39:07;;;;;;;37.25;30.08;;;;;;;;;;5315491;26;20008;-49
2024/04/13 03:41:33;;;;;;;34.58;28.30;;;;;;;;;;5345437;26;20016;-50
2024/04/13 03:43:59;;;;;;;47.47;34.33;;;;;;;;;;5286610;26;20001;-52
2024/04/13 03:46:26;;;;;;;29.85;24.00;;;;;;;;;;5345633;26;20268;-52
2024/04/13 03:48:52;;;;;;;40.53;26.48;;;;;;;;;;5315444;26;19993;-50
2024/04/13 03:51:18;;;;;;;38.92;31.50;;;;;;;;;;5286210;26;20004;-49
2024/04/13 03:53:44;;;;;;;36.47;30.25;;;;;;;;;;5345634;26;20033;-48
2024/04/13 03:56:11;;;;;;;36.90;27.02;;;;;;;;;;5345370;26;20012;-48
2024/04/13 03:58:37;;;;;;;33.00;27.23;;;;;;;;;;5314618;26;20028;-48
2024/04/13 04:01:04;;;;;;;39.72;30.30;;;;;;;;;;5343865;26;20337;-47
2024/04/13 04:03:31;;;;;;;;;;;;;;;;;;5314672;26;20000;-49
2024/04/13 04:05:57;;;;;;;32.28;25.23;;;;;;;;;;5345519;26;19925;-49
2024/04/13 04:08:24;;;;;;;28.63;22.30;;;;;;;;;;5314597;26;20005;-52
2024/04/13 04:10:50;;;;;;;29.37;24.37;;;;;;;;;;5345870;26;19997;-49
2024/04/13 04:13:16;;;;;;;33.72;25.35;;;;;;;;;;5345515;26;20080;-51
2024/04/13 04:15:42;;;;;;;26.50;23.63;;;;;;;;;;5314991;26;20020;-50
2024/04/13 04:18:09;;;;;;;24.77;20.23;;;;;;;;;;5345343;26;20066;-49
2024/04/13 04:20:35;;;;;;;21.85;18.67;;;;;;;;;;5345029;26;20009;-49
2024/04/13 04:23:01;;;;;;;22.00;19.70;;;;;;;;;;5314761;26;20001;-50
2024/04/13 04:25:28;;;;;;;28.98;20.48;;;;;;;;;;5345186;26;19996;-50
2024/04/13 04:27:55;;;;;;;33.83;26.08;;;;;;;;;;5314954;26;20001;-50
2024/04/13 04:30:21;;;;;;;35.40;30.08;;;;;;;;;;5314340;26;20000;-48
2024/04/13 04:32:47;;;;;;;36.50;29.20;;;;;;;;;;5315219;26;19993;-53
2024/04/13 04:35:14;;;;;;;38.83;29.55;;;;;;;;;;5345399;26;20043;-48
2024/04/13 04:37:40;;;;;;;;;;;;;;;;;;5315460;26;20008;-49
2024/04/13 04:40:10;;;;;;;33.10;27.02;;;;;;;;;;5344796;26;19956;-49
2024/04/13 04:42:36;;;;;;;29.27;23.90;;;;;;;;;;5399215;21;20010;-48
2024/04/13 04:45:05;;;;;;;34.45;28.23;;;;;;;;;;5383874;26;20073;-47
2024/04/13 04:47:33;;;;;;;36.60;25.77;;;;;;;;;;5415241;26;20002;-48
2024/04/13 04:49:59;;;;;;;33.95;26.42;;;;;;;;;;5383859;26;20013;-50
2024/04/13 04:52:25;;;;;;;29.75;24.20;;;;;;;;;;5383912;26;20336;-49
2024/04/13 04:54:55;;;;;;;36.63;27.40;;;;;;;;;;5415743;26;19996;-48
2024/04/13 04:57:21;;;;;;;32.50;24.55;;;;;;;;;;5415742;26;19988;-50
2024/04/13 04:59:47;;;;;;;27.98;23.77;;;;;;;;;;5383636;26;20023;-47
2024/04/13 05:02:15;;;;;;;26.45;21.98;;;;;;;;;;5383867;26;20003;-48
2024/04/13 05:04:41;;;;;;;26.23;22.42;;;;;;;;;;5414891;26;20003;-49
2024/04/13 05:07:08;;;;;;;28.80;22.98;;;;;;;;;;5383762;26;20002;-49
2024/04/13 05:09:34;;;;;;;26.30;22.02;;;;;;;;;;5414852;26;20461;-48
2024/04/13 05:12:00;;;;;;;25.60;21.43;;;;;;;;;;5414976;26;19987;-49
2024/04/13 05:14:27;;;;;;;24.67;21.63;;;;;;;;;;5414819;26;20085;-49
2024/04/13 05:16:53;;;;;;;27.43;24.50;;;;;;;;;;5416860;26;20006;-49
2024/04/13 05:19:19;;;;;;;25.40;22.90;;;;;;;;;;5387239;26;20007;-48
2024/04/13 05:21:45;;;;;;;25.87;21.47;;;;;;;;;;5387027;26;20027;-50
2024/04/13 05:24:11;;;;;;;24.47;21.17;;;;;;;;;;5387289;26;20085;-51
2024/04/13 05:26:38;;;;;;;23.00;20.27;;;;;;;;;;5418376;26;20471;-51
2024/04/13 05:29:04;;;;;;;22.87;20.30;;;;;;;;;;5386823;26;19987;-48
2024/04/13 05:31:30;;;;;;;22.00;19.77;;;;;;;;;;5417941;26;19994;-51
2024/04/13 05:33:56;;;;;;;30.52;21.95;;;;;;;;;;5417976;26;19995;-48
2024/04/13 05:36:23;;;;;;;37.60;29.40;;;;;;;;;;5417826;26;20387;-53
2024/04/13 05:38:50;;;;;;;40.67;30.05;;;;;;;;;;5417970;26;20002;-50
2024/04/13 05:41:16;;;;;;;35.42;30.40;;;;;;;;;;5417923;26;20340;-51
2024/04/13 05:43:42;;;;;;;32.35;28.60;;;;;;;;;;5417807;26;20060;-52
2024/04/13 05:46:08;;;;;;;54.25;33.45;;;;;;;;;;5418176;26;19991;-51
2024/04/13 05:48:35;;;;;;;38.42;32.33;;;;;;;;;;5418028;26;19992;-51
2024/04/13 05:51:02;;;;;;;39.63;32.77;;;;;;;;;;5386103;26;20007;-53
2024/04/13 05:53:28;;;;;;;41.47;33.42;;;;;;;;;;5417884;26;19991;-50
2024/04/13 05:55:54;;;;;;;44.75;37.72;;;;;;;;;;5417709;26;19998;-51
2024/04/13 05:58:20;;;;;;;57.10;45.00;;;;;;;;;;5417569;26;19992;-54
2024/04/13 06:00:47;;;;;;;54.93;43.13;;;;;;;;;;5417249;26;19999;-50
2024/04/13 06:03:13;;;;;;;52.58;44.10;;;;;;;;;;5417575;26;19995;-52
2024/04/13 06:05:41;;;;;;;58.35;45.38;;;;;;;;;;5417476;26;19991;-52
2024/04/13 06:08:09;;;;;;;55.30;44.47;;;;;;;;;;5417460;26;19992;-52
2024/04/13 06:10:35;;;;;;;61.95;47.92;;;;;;;;;;5417547;26;19992;-51
2024/04/13 06:13:01;;;;;;;58.38;48.90;;;;;;;;;;5417311;26;20081;-51
2024/04/13 06:15:28;;;;;;;69.67;52.27;;;;;;;;;;5386180;26;20030;-51
2024/04/13 06:17:54;;;;;;;61.08;50.33;;;;;;;;;;5417242;26;19992;-52
2024/04/13 06:20:20;;;;;;;66.90;53.00;;;;;;;;;;5417460;26;19995;-54
2024/04/13 06:22:47;;;;;;;68.67;50.57;;;;;;;;;;5417299;26;19991;-50
2024/04/13 06:25:14;;;;;;;61.65;49.25;;;;;;;;;;5417672;26;20273;-51
2024/04/13 06:27:40;;;;;;;70.55;50.65;;;;;;;;;;5385124;26;20027;-52
2024/04/13 06:30:07;;;;;;;62.00;47.57;;;;;;;;;;5356603;26;20455;-50
2024/04/13 06:32:33;;;;;;;68.28;49.03;;;;;;;;;;5417612;26;20002;-52
2024/04/13 06:34:59;;;;;;;61.63;49.22;;;;;;;;;;5385691;26;20342;-53
2024/04/13 06:37:26;;;;;;;58.78;48.22;;;;;;;;;;5417520;26;20002;-50
2024/04/13 06:39:52;;;;;;;57.35;49.30;;;;;;;;;;5417129;26;20015;-50
2024/04/13 06:42:18;;;;;;;60.72;49.58;;;;;;;;;;5416864;26;19991;-48
2024/04/13 06:44:45;;;;;;;58.03;48.90;;;;;;;;;;5417124;26;20046;-50
2024/04/13 06:47:11;;;;;;;57.00;47.80;;;;;;;;;;5385967;26;20002;-48
2024/04/13 06:49:38;;;;;;;59.75;44.97;;;;;;;;;;5416739;26;19991;-51
2024/04/13 06:52:04;;;;;;;54.67;45.57;;;;;;;;;;5417253;26;19999;-48
2024/04/13 06:54:30;;;;;;;54.83;44.90;;;;;;;;;;5417325;26;19995;-49
2024/04/13 06:56:56;;;;;;;54.00;40.77;;;;;;;;;;5417237;26;20006;-50
2024/04/13 06:59:22;;;;;;;56.40;42.93;;;;;;;;;;5417204;26;20027;-51
2024/04/13 07:01:49;;;;;;;47.30;41.03;;;;;;;;;;5416453;26;20019;-48
2024/04/13 07:04:16;;;;;;;;;;;;;;;;;;5417399;26;20546;-47
2024/04/13 07:06:42;;;;;;;47.00;40.35;;;;;;;;;;5416586;26;20254;-49
2024/04/13 07:09:11;;;;;;;46.70;40.92;;;;;;;;;;5417018;26;20002;-48
2024/04/13 07:11:37;;;;;;;48.72;40.30;;;;;;;;;;5385246;26;20145;-48
2024/04/13 07:14:06;;;;;;;43.77;34.13;;;;;;;;;;5385391;26;20072;-48
2024/04/13 07:16:32;;;;;;;44.33;33.90;;;;;;;;;;5385168;26;20217;-49
2024/04/13 07:18:59;;;;;;;39.90;29.65;;;;;;;;;;5416783;26;19991;-47
2024/04/13 07:21:25;;;;;;;39.53;30.40;;;;;;;;;;5416366;26;19992;-48
2024/04/13 07:23:51;;;;;;;35.70;28.67;;;;;;;;;;5416851;26;19995;-49
2024/04/13 07:26:17;;;;;;;38.40;30.13;;;;;;;;;;5416576;26;20007;-48
2024/04/13 07:28:44;;;;;;;35.33;29.30;;;;;;;;;;5416601;26;20011;-48
2024/04/13 07:31:10;;;;;;;37.73;28.77;;;;;;;;;;5385332;26;20000;-50
2024/04/13 07:33:36;;;;;;;37.17;29.03;;;;;;;;;;5416597;26;20010;-47
2024/04/13 07:36:03;;;;;;;39.05;28.70;;;;;;;;;;5385092;26;20068;-48
2024/04/13 07:38:30;;;;;;;;;;;;;;;;;;5416841;26;20337;-51
2024/04/13 07:40:56;;;;;;;35.88;27.30;;;;;;;;;;5415686;26;19929;-49
2024/04/13 07:43:23;;;;;;;32.70;24.90;;;;;;;;;;5384968;26;20000;-52
2024/04/13 07:45:49;;;;;;;40.25;27.60;;;;;;;;;;5384978;26;20003;-50
2024/04/13 07:48:16;;;;;;;41.85;28.48;;;;;;;;;;5416016;26;19992;-49
2024/04/13 07:50:42;;;;;;;37.30;28.02;;;;;;;;;;5416066;26;20032;-48
2024/04/13 07:53:09;;;;;;;42.90;31.10;;;;;;;;;;5384945;26;20520;-48
2024/04/13 07:55:35;;;;;;;38.30;31.05;;;;;;;;;;5416348;26;20357;-49
2024/04/13 07:58:01;;;;;;;41.03;30.83;;;;;;;;;;5384415;26;20344;-51
2024/04/13 08:00:27;;;;;;;48.33;32.23;;;;;;;;;;5415686;26;20027;-50
2024/04/13 08:02:53;;;;;;;43.77;35.63;;;;;;;;;;5416175;26;20047;-50
2024/04/13 08:05:20;;;;;;;44.87;36.43;;;;;;;;;;5384960;26;20014;-49
2024/04/13 08:07:46;;;;;;;41.23;35.57;;;;;;;;;;5384616;26;19992;-48
2024/04/13 08:10:12;;;;;;;44.90;34.33;;;;;;;;;;5384419;26;20835;-49
2024/04/13 08:12:39;;;;;;;44.50;34.53;;;;;;;;;;5415954;26;19991;-47
2024/04/13 08:15:10;;;;;;;48.63;36.03;;;;;;;;;;5415714;26;19991;-52
2024/04/13 08:17:37;;;;;;;40.53;33.75;;;;;;;;;;5416118;26;20501;-51
2024/04/13 08:20:04;;;;;;;51.28;33.78;;;;;;;;;;5415399;26;19999;-50
2024/04/13 08:22:30;;;;;;;44.28;32.83;;;;;;;;;;5415841;26;20002;-50
2024/04/13 08:24:57;;;;;;;38.35;31.30;;;;;;;;;;5415570;26;20000;-51
2024/04/13 08:27:23;;;;;;;39.00;30.50;;;;;;;;;;5415518;26;19992;-51
2024/04/13 08:29:49;;;;;;;44.47;32.03;;;;;;;;;;5384410;26;20217;-50
2024/04/13 08:32:16;;;;;;;39.50;31.58;;;;;;;;;;5415627;26;19991;-50
2024/04/13 08:34:42;;;;;;;43.10;34.58;;;;;;;;;;5384537;26;20064;-52
2024/04/13 08:37:08;;;;;;;41.30;33.70;;;;;;;;;;5384325;26;20010;-50
2024/04/13 08:39:35;;;;;;;39.80;33.43;;;;;;;;;;5383826;26;19999;-49
2024/04/13 08:42:08;;;;;;;42.63;33.63;;;;;;;;;;5384053;26;20491;-51
2024/04/13 08:44:35;;;;;;;41.45;32.97;;;;;;;;;;5415355;26;20470;-49
2024/04/13 08:47:02;;;;;;;40.95;33.35;;;;;;;;;;5415632;26;19996;-48
2024/04/13 08:49:30;;;;;;;41.03;34.22;;;;;;;;;;5415708;26;19995;-48
2024/04/13 08:51:57;;;;;;;41.58;32.75;;;;;;;;;;5414153;26;20024;-48
2024/04/13 08:54:23;;;;;;;41.03;31.77;;;;;;;;;;5383926;26;20336;-48
2024/04/13 08:56:50;;;;;;;43.50;34.45;;;;;;;;;;5415204;26;20027;-47
2024/04/13 08:59:17;;;;;;;40.90;34.25;;;;;;;;;;5415085;26;20341;-48
2024/04/13 09:01:44;;;;;;;43.88;35.08;;;;;;;;;;5383388;26;19991;-48
2024/04/13 09:04:11;;;;;;;43.58;35.17;;;;;;;;;;5415632;26;19991;-51
2024/04/13 09:06:37;;;;;;;38.45;32.25;;;;;;;;;;5414912;26;20413;-47
2024/04/13 09:09:08;;;;;;;48.65;34.75;;;;;;;;;;5414899;26;19995;-52
2024/04/13 09:11:35;;;;;;;41.85;33.90;;;;;;;;;;5414876;26;20065;-48
2024/04/13 09:14:03;;;;;;;38.78;32.00;;;;;;;;;;5414806;26;20067;-47
2024/04/13 09:16:29;;;;;;;38.72;33.13;;;;;;;;;;5414601;26;19991;-50
2024/04/13 09:18:56;;;;;;;38.22;31.42;;;;;;;;;;5383669;26;20023;-49
2024/04/13 09:21:23;;;;;;;40.90;32.90;;;;;;;;;;5383575;26;20454;-48
2024/04/13 09:23:50;;;;;;;39.58;31.58;;;;;;;;;;5414770;26;20007;-48
2024/04/13 09:26:16;;;;;;;40.50;32.28;;;;;;;;;;5383338;26;20076;-51
2024/04/13 09:28:44;;;;;;;39.77;31.07;;;;;;;;;;5414444;26;19996;-50
2024/04/13 09:31:11;;;;;;;38.75;31.88;;;;;;;;;;5414212;26;20527;-48
2024/04/13 09:33:38;;;;;;;46.60;32.35;;;;;;;;;;5414431;26;19999;-49
2024/04/13 09:36:05;;;;;;;38.65;32.33;;;;;;;;;;5414301;26;20027;-48
2024/04/13 09:38:31;;;;;;;37.85;31.13;;;;;;;;;;5414520;26;20010;-50
2024/04/13 09:41:00;;;;;;;41.03;32.20;;;;;;;;;;5414042;26;19996;-53
2024/04/13 09:43:27;;;;;;;40.40;31.35;;;;;;;;;;5382871;26;20745;-48
2024/04/13 09:46:01;;;;;;;38.55;30.35;;;;;;;;;;5382878;26;20405;-51
2024/04/13 09:48:28;;;;;;;37.20;30.20;;;;;;;;;;5414653;26;19995;-50
2024/04/13 09:50:55;;;;;;;36.22;30.13;;;;;;;;;;5382545;26;20006;-49
2024/04/13 09:53:21;;;;;;;36.03;29.02;;;;;;;;;;5382908;26;20002;-49
2024/04/13 09:55:48;;;;;;;33.22;27.98;;;;;;;;;;5382981;26;20065;-50
2024/04/13 09:58:14;;;;;;;32.92;27.73;;;;;;;;;;5414138;26;19995;-49
2024/04/13 10:00:43;;;;;;;32.50;26.55;;;;;;;;;;5413834;26;20015;-47
2024/04/13 10:03:10;;;;;;;36.58;27.35;;;;;;;;;;5384696;26;19996;-48
2024/04/13 10:05:40;;;;;;;33.08;26.73;;;;;;;;;;5417577;26;20460;-49
2024/04/13 10:08:10;;;;;;;32.72;28.27;;;;;;;;;;5386189;26;19992;-47
2024/04/13 10:10:38;;;;;;;32.58;26.23;;;;;;;;;;5417221;26;19992;-50
2024/04/13 10:13:04;;;;;;;32.67;26.60;;;;;;;;;;5417528;26;20010;-48
2024/04/13 10:15:31;;;;;;;30.67;26.13;;;;;;;;;;5386121;26;20027;-48
2024/04/13 10:17:58;;;;;;;36.58;28.88;;;;;;;;;;5417312;26;20041;-48
2024/04/13 10:20:26;;;;;;;33.25;27.73;;;;;;;;;;5417345;26;20459;-48
2024/04/13 10:22:56;;;;;;;30.83;24.38;;;;;;;;;;5417683;26;20007;-47
2024/04/13 10:25:26;;;;;;;28.95;24.98;;;;;;;;;;5417573;26;20002;-51
2024/04/13 10:28:03;;;;;;;31.42;23.13;;;;;;;;;;5417238;26;20519;-50
2024/04/13 10:30:29;;;;;;;28.48;24.13;;;;;;;;;;5417233;26;19996;-48
2024/04/13 10:32:56;;;;;;;28.48;22.88;;;;;;;;;;5417448;26;19992;-50
2024/04/13 10:35:26;;;;;;;27.42;23.02;;;;;;;;;;5385893;26;20444;-49
2024/04/13 10:37:52;;;;;;;29.20;24.30;;;;;;;;;;5386167;26;19992;-48
2024/04/13 10:40:24;;;;;;;25.25;21.65;;;;;;;;;;5385601;26;19996;-48
2024/04/13 10:42:50;;;;;;;26.10;23.05;;;;;;;;;;5386363;26;20019;-50
2024/04/13 10:45:17;;;;;;;25.55;22.08;;;;;;;;;;5417464;26;20056;-53
2024/04/13 10:47:44;;;;;;;27.95;23.42;;;;;;;;;;5385848;26;20003;-49
2024/04/13 10:50:14;;;;;;;29.65;22.85;;;;;;;;;;5405622;26;20073;-49
2024/04/13 10:52:41;;;;;;;28.65;23.33;;;;;;;;;;5399520;26;20011;-54
2024/04/13 10:55:11;;;;;;;30.67;24.77;;;;;;;;;;5417094;26;20460;-51
2024/04/13 10:57:39;;;;;;;28.02;22.75;;;;;;;;;;5407903;26;19999;-50
2024/04/13 11:00:08;;;;;;;29.35;21.85;;;;;;;;;;5380078;26;19997;-48
2024/04/13 11:02:37;;;;;;;28.50;21.88;;;;;;;;;;5381750;26;20006;-50
2024/04/13 11:05:04;;;;;;;27.00;20.67;;;;;;;;;;5381472;26;20340;-48
2024/04/13 11:07:31;;;;;;;20.25;16.80;;;;;;;;;;5381778;26;20432;-46
2024/04/13 11:09:58;;;;;;;26.40;19.00;;;;;;;;;;5380979;26;20073;-48
2024/04/13 11:12:24;;;;;;;21.77;19.48;;;;;;;;;;5350617;26;20066;-48
2024/04/13 11:14:50;;;;;;;30.48;24.25;;;;;;;;;;5349323;26;20069;-47
2024/04/13 11:17:16;;;;;;;27.45;21.30;;;;;;;;;;5350096;26;19996;-48
2024/04/13 11:19:43;;;;;;;24.67;21.92;;;;;;;;;;5381244;26;20007;-50
2024/04/13 11:22:10;;;;;;;27.98;22.92;;;;;;;;;;5381028;26;19996;-47
2024/04/13 11:24:37;;;;;;;25.98;20.88;;;;;;;;;;5381240;26;20468;-51
2024/04/13 11:27:03;;;;;;;24.75;19.17;;;;;;;;;;5381327;26;19996;-47
2024/04/13 11:29:30;;;;;;;22.10;16.98;;;;;;;;;;5350403;26;20007;-47
2024/04/13 11:31:57;;;;;;;25.00;16.02;;;;;;;;;;5380407;26;19993;-47
2024/04/13 11:34:23;;;;;;;;;;;;;;;;;;5321681;26;20440;-51
2024/04/13 11:36:49;;;;;;;22.40;18.17;;;;;;;;;;5380969;26;19925;-49
2024/04/13 11:39:15;;;;;;;24.52;17.25;;;;;;;;;;5400073;26;20039;-51
2024/04/13 11:41:42;;;;;;;18.50;14.43;;;;;;;;;;5415716;26;20011;-51
2024/04/13 11:44:08;;;;;;;27.88;15.90;;;;;;;;;;5386923;26;19996;-51
2024/04/13 11:46:34;;;;;;;19.80;14.43;;;;;;;;;;5380456;26;20063;-54
2024/04/13 11:49:00;;;;;;;21.42;14.68;;;;;;;;;;5380738;26;20007;-52
2024/04/13 11:51:27;;;;;;;16.30;12.07;;;;;;;;;;5380620;26;20003;-47
2024/04/13 11:53:55;;;;;;;19.48;13.00;;;;;;;;;;5380131;26;20008;-48
2024/04/13 11:56:22;;;;;;;18.52;12.82;;;;;;;;;;5378720;26;20399;-51
2024/04/13 11:58:49;;;;;;;18.65;12.57;;;;;;;;;;5401157;26;19996;-48
2024/04/13 12:01:16;;;;;;;15.80;11.68;;;;;;;;;;5379839;26;19992;-51
2024/04/13 12:03:42;;;;;;;15.75;11.93;;;;;;;;;;5383108;26;19996;-49
2024/04/13 12:06:08;;;;;;;16.45;12.68;;;;;;;;;;5411796;26;20332;-49
2024/04/13 12:08:35;;;;;;;17.80;12.15;;;;;;;;;;5382148;26;20444;-48
2024/04/13 12:11:01;;;;;;;14.30;11.93;;;;;;;;;;5414151;26;20439;-50
2024/04/13 12:13:27;;;;;;;17.52;12.43;;;;;;;;;;5404586;26;20043;-50
2024/04/13 12:15:54;;;;;;;16.52;12.30;;;;;;;;;;5369985;26;20341;-48
2024/04/13 12:18:22;;;;;;;19.67;13.50;;;;;;;;;;5413188;26;20039;-49
2024/04/13 12:20:48;;;;;;;17.98;9.73;;;;;;;;;;5351301;26;20012;-51
2024/04/13 12:23:14;;;;;;;20.73;13.23;;;;;;;;;;5387964;26;20011;-50
2024/04/13 12:25:41;;;;;;;18.42;11.88;;;;;;;;;;5377204;26;20004;-49
2024/04/13 12:28:07;;;;;;;15.90;13.10;;;;;;;;;;5380051;26;20004;-52
2024/04/13 12:30:34;;;;;;;19.38;14.77;;;;;;;;;;5404520;26;20012;-49
2024/04/13 12:33:00;;;;;;;21.42;15.57;;;;;;;;;;5347507;26;19996;-48
2024/04/13 12:35:28;;;;;;;22.23;14.82;;;;;;;;;;5347444;26;20064;-49
2024/04/13 12:37:54;;;;;;;18.48;14.40;;;;;;;;;;5380495;26;20350;-49
2024/04/13 12:40:20;;;;;;;23.23;14.70;;;;;;;;;;5406781;26;20011;-48
2024/04/13 12:42:47;;;;;;;17.00;14.85;;;;;;;;;;5398349;26;20356;-50
2024/04/13 12:45:13;;;;;;;20.80;16.13;;;;;;;;;;5379605;26;20068;-49
2024/04/13 12:47:39;;;;;;;25.63;14.55;;;;;;;;;;5377713;26;20001;-50
2024/04/13 12:50:06;;;;;;;16.17;13.15;;;;;;;;;;5346824;26;20540;-50
2024/04/13 12:52:33;;;;;;;15.55;12.57;;;;;;;;;;5346803;26;20381;-52
2024/04/13 12:54:59;;;;;;;15.88;13.95;;;;;;;;;;5385840;26;20031;-49
2024/04/13 12:57:26;;;;;;;21.00;14.77;;;;;;;;;;5407583;26;20004;-51
2024/04/13 12:59:54;;;;;;;15.32;12.98;;;;;;;;;;5382584;26;20003;-50
2024/04/13 13:02:20;;;;;;;17.15;13.45;;;;;;;;;;5399046;26;20441;-52
2024/04/13 13:04:46;;;;;;;21.85;14.95;;;;;;;;;;5378209;26;20015;-49
2024/04/13 13:07:13;;;;;;;17.58;13.45;;;;;;;;;;5379676;26;20000;-49
2024/04/13 13:09:40;;;;;;;15.65;13.60;;;;;;;;;;5377396;26;20015;-52
2024/04/13 13:12:06;;;;;;;19.20;14.25;;;;;;;;;;5379738;26;20099;-52
2024/04/13 13:14:32;;;;;;;22.05;13.65;;;;;;;;;;5378239;26;20003;-50
2024/04/13 13:16:59;;;;;;;15.02;12.82;;;;;;;;;;5364863;26;19995;-54
2024/04/13 13:19:25;;;;;;;18.58;13.85;;;;;;;;;;5381683;26;20465;-52
2024/04/13 13:21:51;;;;;;;14.00;12.45;;;;;;;;;;5377857;26;19996;-55
2024/04/13 13:24:18;;;;;;;14.63;12.88;;;;;;;;;;5388257;26;20181;-55
2024/04/13 13:26:44;;;;;;;13.25;11.70;;;;;;;;;;5379536;26;20359;-51
2024/04/13 13:29:10;;;;;;;14.65;12.40;;;;;;;;;;5396955;26;20024;-55
2024/04/13 13:31:37;;;;;;;14.50;11.93;;;;;;;;;;5352687;26;20068;-55
2024/04/13 13:34:06;;;;;;;;;;;;;;;;;;5408682;26;20474;-52
2024/04/13 13:36:32;;;;;;;12.55;11.13;;;;;;;;;;5357837;26;19926;-54
2024/04/13 13:38:58;;;;;;;14.05;11.77;;;;;;;;;;5365756;26;20014;-53
2024/04/13 13:41:26;;;;;;;17.92;11.40;;;;;;;;;;5386700;26;20100;-55
2024/04/13 13:43:52;;;;;;;15.25;11.38;;;;;;;;;;5353645;26;20107;-51
2024/04/13 13:46:18;;;;;;;;;;;;;;;;;;5408917;26;20007;-52
2024/04/13 13:48:44;;;;;;;14.70;11.27;;;;;;;;;;5417280;26;20020;-56
2024/04/13 13:51:10;;;;;;;;;;;;;;;;;;5398037;26;20007;-52
2024/04/13 13:53:36;;;;;;;13.73;10.50;;;;;;;;;;5400466;26;19925;-53
2024/04/13 13:56:03;;;;;;;;;;;;;;;;;;5325139;26;20001;-57
2024/04/13 13:58:29;;;;;;;13.07;11.38;;;;;;;;;;5351227;26;19926;-53
2024/04/13 14:00:56;;;;;;;13.68;12.35;;;;;;;;;;5394098;26;20000;-57
2024/04/13 14:03:22;;;;;;;11.63;10.23;;;;;;;;;;5363977;26;20010;-55
2024/04/13 14:05:48;;;;;;;13.25;11.60;;;;;;;;;;5394039;26;20012;-53
2024/04/13 14:08:14;;;;;;;12.82;11.27;;;;;;;;;;5406085;26;20015;-56
2024/04/13 14:10:40;;;;;;;12.68;11.32;;;;;;;;;;5384050;26;20019;-55
2024/04/13 14:13:07;;;;;;;17.95;12.15;;;;;;;;;;5353225;26;20410;-56
2024/04/13 14:15:33;;;;;;;13.38;11.13;;;;;;;;;;5398957;26;19996;-56
2024/04/13 14:17:59;;;;;;;13.23;11.48;;;;;;;;;;5414280;26;20404;-56